Hit Tracker is now ESPN Home Run Tracker! Hit Tracker founder Greg Rybarczyk is now collaborating with the ESPN Stats & Information Group to continue tracking all MLB home runs, and helping baseball fans know "How Far It Really Went!™" Please credit any information on this site to ESPN Stats & Information Group. For more information and analysis on home runs, please contact founder Greg Rybarczyk. E-Mail ESPN Home Run Tracker
Main Page | Ballparks | Park Overlays | Glossary | Highlight Homers | Feedback | Bio | 3 Types of HR's | AAA Home Run Derby Last Updated: September 24, 2017, 9:25 pm PST
If you want to know "How Far It Really Went!", then you've come to the right place! Welcome to the ESPN Home Run Tracker, where you can find accurate, transparently verifiable distances for every home run hit in MLB games. Please also check out the ESPN MLB Scoreboard throughout the 2017 season! Contact us at grybar@hittrackeronline.com.
Season:
Ballpark detail for Oriole Park at Camden Yards
Ballpark # of Home Runs HR per game Avg.
True
Distance
Avg.
Speed
Off
Bat
Avg.
Std.
Dist.
Oriole Park at Camden Yards 262 3.23 397.9 103.7 396.7

Scatter Plot of Home Runs Oriole Park at Camden Yards
 Overlay Ballpark:
Without range rings   With range rings

2017 Season Home Runs for Oriole Park at Camden Yards
Click headers to sort
Date Video Path Hitter Hitter
Team
Pitcher Pitcher
Team
 ^
INN Ballpark Type/
Luck
True
Dist.
Speed
Off
Bat
Elev.
Angle
Horiz.
Angle
Apex Impact Due To: Std.
Dist.
#
Parks
Wind Temp. Alt.
04/09/17 Video View Judge, Aaron NYY Givens, Mychal BAL 8 Oriole Park ... JE 372 97.0 29.6 106.4 86 1 0 0 371 15
04/07/17 Video View Sanchez, Gary NYY Jimenez, Ubaldo BAL 5 Oriole Park ... PL 398 106.2 34.2 116.3 126 6 -7 0 398 30
04/07/17 Video View Holliday, Matt NYY Jimenez, Ubaldo BAL 3 Oriole Park ... PL 403 108.3 22.7 108.1 70 7 -2 0 398 30
04/22/17 Video View Bradley Jr., Jackie BOS Aquino, Jayson BAL 3 Oriole Park ... ND 407 107.9 28.0 65.0 90 -4 -2 0 413 30
04/23/17 Video View Betts, Mookie BOS Gausman, Kevin BAL 1 Oriole Park ... JE 381 104.8 21.8 103.4 56 -1 0 0 382 6
04/23/17 Video View Ramirez, Hanley BOS Gausman, Kevin BAL 1 Oriole Park ... ND 418 110.1 25.4 112.9 76 2 -2 0 418 30
04/23/17 Video View Moreland, Mitch BOS Gausman, Kevin BAL 5 Oriole Park ... JE 401 99.0 30.4 86.3 103 4 -2 0 398 2
04/24/17 Video View Dickerson, Corey TB Jimenez, Ubaldo BAL 1 Oriole Park ... PL 407 104.9 28.1 75.1 100 -5 -2 0 414 30
04/26/17 Video View Beckham, Tim TB Bundy, Dylan BAL 3 Oriole Park ... PL 394 101.9 25.8 102.5 78 0 0 0 394 26
04/26/17 Video View Beckham, Tim TB Bundy, Dylan BAL 5 Oriole Park ... JE 375 104.9 23.8 114.6 60 0 0 0 375 26
05/06/17 Video View Asche, Cody CHW Bundy, Dylan BAL 6 Oriole Park ... PL 413 105.0 23.4 83.6 73 0 -1 0 413 27
05/06/17 Video View Abreu, Jose CHW Givens, Mychal BAL 8 Oriole Park ... JE 353 109.4 20.8 131.0 45 1 -1 0 354 21
05/08/17 Video View Harper, Bryce WSH O'Day, Darren BAL 8 Oriole Park ... PL 391 102.5 25.4 104.8 75 0 -1 0 392 25
05/09/17 Video View Murphy, Daniel WSH Jimenez, Ubaldo BAL 2 Oriole Park ... PL 392 102.4 26.1 74.0 77 0 0 0 392 28
05/09/17 Video View Lind, Adam WSH Jimenez, Ubaldo BAL 8 Oriole Park ... JE 404 101.5 24.7 88.1 79 0 -1 0 405 4
05/20/17 Video View Smoak, Justin TOR Gausman, Kevin BAL 6 Oriole Park ... JE 399 101.4 24.0 85.7 75 1 -1 0 399 1
05/20/17 Video View Bautista, Jose TOR Givens, Mychal BAL 7 Oriole Park ... ND 385 103.8 28.4 123.3 75 5 -1 0 381 30
05/21/17 Video View Travis, Devon TOR Miley, Wade BAL 1 Oriole Park ... PL 395 102.7 28.8 110.1 89 0 -1 0 395 30
05/22/17 Video View Kepler, Max MIN Jimenez, Ubaldo BAL 4 Oriole Park ... PL 412 103.5 24.4 85.0 80 0 0 0 412 18
05/22/17 Video View Sano, Miguel MIN Crichton, Stefan BAL 9 Oriole Park ... PL 380 104.9 23.2 109.0 61 0 0 0 381 21
05/23/17 Video View Dozier, Brian MIN Bundy, Dylan BAL 7 Oriole Park ... PL 374 100.7 29.4 118.0 82 0 -1 0 374 30
05/29/17 Video View Judge, Aaron NYY Bundy, Dylan BAL 7 Oriole Park ... PL 429 111.2 19.9 84.4 64 3 0 0 426 24
05/30/17 Video View Gardner, Brett NYY Tillman, Chris BAL 1 Oriole Park ... PL 407 105.2 29.4 75.8 111 -10 -1 0 418 30
05/30/17 Video View Holliday, Matt NYY Tillman, Chris BAL 1 Oriole Park ... PL 406 103.9 26.2 102.6 85 -1 0 0 408 30
05/30/17 Video View Holliday, Matt NYY Tillman, Chris BAL 3 Oriole Park ... ND 414 109.1 30.3 119.7 101 -2 -1 0 416 30
05/30/17 Video View Gardner, Brett NYY Verrett, Logan BAL 4 Oriole Park ... PL 387 108.6 24.0 60.6 63 -1 -1 -1 389 30
06/01/17 Video View Bradley Jr., Jackie BOS Hart, Donnie BAL 9 Oriole Park ... PL 413 102.3 27.0 84.1 91 1 1 0 412 20
06/02/17 Video View Sandoval, Pablo BOS Asher, Alec BAL 3 Oriole Park ... JE 366 99.5 26.4 112.5 69 1 1 0 365 11
06/03/17 Video View Ramirez, Hanley BOS Bundy, Dylan BAL 4 Oriole Park ... JE/L 368 95.3 34.3 105.9 106 6 1 0 361 4
06/04/17 Video View Benintendi, Andrew BOS Tillman, Chris BAL 3 Oriole Park ... PL 382 102.1 35.1 74.9 134 -12 4 0 389 30
06/04/17 Video View Benintendi, Andrew BOS Wright, Mike BAL 7 Oriole Park ... PL 372 104.7 25.2 55.6 61 1 2 0 369 29
06/06/17 Video View Freese, David PIT Gausman, Kevin BAL 6 Oriole Park ... JE 375 101.3 24.6 73.1 66 -1 0 0 375 16
06/07/17 Video View Osuna, Jose PIT Jackson, Edwin BAL 7 Oriole Park ... ND 404 108.3 27.7 119.7 84 -2 -1 0 407 30
06/16/17 Video View DeJong, Paul STL Gausman, Kevin BAL 4 Oriole Park ... PL 367 98.9 32.4 119.0 94 -1 1 0 367 30
06/16/17 Video View Carpenter, Matt STL Ynoa, Gabriel BAL 6 Oriole Park ... JE 396 102.3 24.0 81.2 72 -1 0 0 396 17
06/16/17 Video View Fowler, Dexter STL Ynoa, Gabriel BAL 6 Oriole Park ... PL 397 102.7 27.7 73.0 87 -2 1 0 398 30
06/16/17 Video View Pham, Tommy STL Ynoa, Gabriel BAL 7 Oriole Park ... ND 426 106.5 28.9 103.8 105 -1 2 0 426 30
06/16/17 Video View Gyorko, Jedd STL Nuno, Vidal BAL 9 Oriole Park ... JE 367 97.3 34.2 72.0 112 -2 2 0 368 19
06/17/17 Video View DeJong, Paul STL Miley, Wade BAL 4 Oriole Park ... JE 403 100.8 26.3 85.2 85 0 1 0 403 15
06/17/17 Video View Molina, Yadier STL Miley, Wade BAL 5 Oriole Park ... PL 420 102.1 28.3 96.9 93 7 2 0 412 22
06/17/17 Video View Fowler, Dexter STL Asher, Alec BAL 6 Oriole Park ... PL 385 96.5 31.8 101.7 97 8 2 0 375 1
06/18/17 Video View Piscotty, Stephen STL Jimenez, Ubaldo BAL 2 Oriole Park ... JE 400 98.6 29.6 85.1 96 3 2 0 395 2
06/18/17 Video View Piscotty, Stephen STL Jimenez, Ubaldo BAL 4 Oriole Park ... PL 442 108.0 23.8 91.3 83 1 1 0 441 30
06/18/17 Video View Fowler, Dexter STL Nuno, Vidal BAL 8 Oriole Park ... JE 399 105.7 21.4 82.5 59 0 0 0 400 8
06/18/17 Video View Molina, Yadier STL Castro, Miguel BAL 8 Oriole Park ... PL 388 105.1 36.2 113.3 139 -4 6 0 385 30
06/19/17 Video View Kipnis, Jason CLE Bundy, Dylan BAL 5 Oriole Park ... ND 401 104.4 33.9 64.2 116 7 1 0 392 30
06/19/17 Video View Santana, Carlos CLE Nuno, Vidal BAL 5 Oriole Park ... JE 382 105.4 22.0 105.3 57 0 0 0 382 8
06/20/17 Video View Encarnacion, Edwin CLE Tillman, Chris BAL 1 Oriole Park ... ND 449 111.5 29.6 107.9 115 2 3 0 444 30
06/21/17 Video View Lindor, Francisco CLE Gausman, Kevin BAL 5 Oriole Park ... JE 408 105.5 21.1 86.5 65 1 0 0 407 6
06/22/17 Video View Gonzalez, Erik CLE Bleier, Richard BAL 6 Oriole Park ... PL 431 105.5 25.9 95.6 90 1 1 0 428 29
06/30/17 Video View Ramos, Wilson TB Tillman, Chris BAL 2 Oriole Park ... PL 417 102.0 27.1 89.4 90 2 1 0 414 23
06/30/17 Video View Souza Jr., Steven TB O'Day, Darren BAL 10 Oriole Park ... JE 417 103.7 24.3 91.0 80 0 0 0 417 23
07/01/17 Video View Morrison, Logan TB Bundy, Dylan BAL 1 Oriole Park ... PL 433 112.1 18.6 90.9 62 3 -1 -1 431 28
07/01/17 Video View Souza Jr., Steven TB Bundy, Dylan BAL 3 Oriole Park ... PL 434 104.7 29.6 93.7 112 3 1 0 429 29
07/01/17 Video View Ramos, Wilson TB Asher, Alec BAL 5 Oriole Park ... ND 433 107.1 24.8 97.5 84 1 1 0 431 30
07/01/17 Video View Morrison, Logan TB Bundy, Dylan BAL 3 Oriole Park ... ND 417 109.6 31.4 59.6 109 -2 1 0 417 30
07/02/17 Video View Sucre, Jesus TB Givens, Mychal BAL 8 Oriole Park ... JE 371 103.4 23.5 111.6 59 1 1 0 369 10
07/14/17 Video View Contreras, Willson CHC Gausman, Kevin BAL 1 Oriole Park ... ND 442 108.5 25.4 97.4 93 -1 1 0 442 30
07/14/17 Video View Schwarber, Kyle CHC Gausman, Kevin BAL 1 Oriole Park ... ND 434 111.7 21.3 98.3 69 0 1 0 433 30
07/14/17 Video View Zobrist, Ben CHC Gausman, Kevin BAL 2 Oriole Park ... PL 375 103.1 25.9 63.2 67 0 0 0 375 28
07/14/17 Video View Heyward, Jason CHC Gausman, Kevin BAL 3 Oriole Park ... ND 390 103.3 30.3 61.4 91 0 1 0 388 30
07/14/17 Video View Russell, Addison CHC Brach, Brad BAL 9 Oriole Park ... PL 399 107.5 21.4 101.8 60 0 0 -1 399 20
07/15/17 Video View Almora Jr., Albert CHC Miley, Wade BAL 3 Oriole Park ... PL 409 103.1 23.7 86.5 75 0 0 0 409 13
07/15/17 Video View Russell, Addison CHC Miley, Wade BAL 4 Oriole Park ... ND 419 109.8 28.1 115.4 94 -6 2 0 422 30
07/15/17 Video View Rizzo, Anthony CHC Castro, Miguel BAL 8 Oriole Park ... PL 442 107.6 24.5 91.1 90 0 1 0 441 30
07/16/17 Video View Bryant, Kris CHC Jimenez, Ubaldo BAL 4 Oriole Park ... PL 412 111.1 20.2 100.0 57 -1 0 0 413 29
07/16/17 Video View Rizzo, Anthony CHC O'Day, Darren BAL 9 Oriole Park ... PL 418 109.1 21.3 81.7 63 1 0 0 417 24
07/18/17 Video View Choo, Shin-Soo TEX Bundy, Dylan BAL 1 Oriole Park ... PL 435 104.9 30.0 96.0 113 3 3 3 428 30
07/19/17 Video View Gallo, Joey TEX Gausman, Kevin BAL 5 Oriole Park ... PL 413 102.2 30.8 81.6 112 -2 4 0 410 28
07/20/17 Video View Napoli, Mike TEX Miley, Wade BAL 5 Oriole Park ... PL 409 104.4 25.6 103.5 79 1 2 0 406 30
07/21/17 Video View Gurriel, Yulieski HOU Jimenez, Ubaldo BAL 1 Oriole Park ... JE 376 100.6 24.1 103.7 63 0 1 0 375 1
07/21/17 Video View McCann, Brian HOU Jimenez, Ubaldo BAL 6 Oriole Park ... PL 424 102.9 28.1 86.0 98 2 2 0 419 25
07/21/17 Video View Moran, Colin HOU Bleier, Richard BAL 8 Oriole Park ... PL 383 98.7 29.9 73.8 91 0 2 0 381 27
07/22/17 Video View Bregman, Alex HOU Tillman, Chris BAL 5 Oriole Park ... PL 401 103.8 24.2 101.4 71 1 0 0 400 21
07/22/17 Video View Gurriel, Yulieski HOU Tillman, Chris BAL 6 Oriole Park ... JE/L 349 97.0 27.9 60.5 67 1 0 0 348 10
07/22/17 Video View Gonzalez, Marwin HOU O'Day, Darren BAL 6 Oriole Park ... ND 385 102.8 34.1 63.1 114 0 1 0 384 30
07/23/17 Video View Altuve, Jose HOU Bundy, Dylan BAL 3 Oriole Park ... PL 368 101.2 37.2 113.2 134 -4 6 0 366 27
07/23/17 Video View Aoki, Nori HOU Bundy, Dylan BAL 6 Oriole Park ... PL 359 96.2 32.7 57.2 85 7 2 0 350 25
08/03/17 Video View Kinsler, Ian DET Tillman, Chris BAL 1 Oriole Park ... JE 380 105.2 21.6 104.3 56 0 0 0 380 3
08/03/17 Video View Upton, Justin DET Tillman, Chris BAL 1 Oriole Park ... ND 464 113.0 22.2 89.3 84 0 1 0 464 30
08/04/17 Video View Adduci, Jim DET Gausman, Kevin BAL 1 Oriole Park ... JE/L 368 98.2 27.1 111.5 68 4 1 1 363 5
08/04/17 Video View Upton, Justin DET Givens, Mychal BAL 8 Oriole Park ... PL 404 104.3 30.5 115.4 95 5 2 0 398 30
08/05/17 Video View Upton, Justin DET Miley, Wade BAL 1 Oriole Park ... PL 403 110.0 23.9 115.6 66 1 1 0 401 30
08/06/17 Video View Castellanos, Nick DET Jimenez, Ubaldo BAL 5 Oriole Park ... PL 398 99.6 29.8 100.0 97 3 1 0 395 24
08/18/17 Video View Pujols, Albert LAA Hellickson, Jeremy BAL 1 Oriole Park ... JE 357 106.7 22.1 124.4 50 0 1 0 356 16
08/18/17 Video View Calhoun, Kole LAA Hellickson, Jeremy BAL 1 Oriole Park ... JE 398 105.8 21.8 80.3 62 0 0 0 398 17
08/18/17 Video View Cron, C.J. LAA Hellickson, Jeremy BAL 2 Oriole Park ... PL 411 110.0 22.4 106.3 65 0 1 0 410 30
08/18/17 Video View Cowart, Kaleb LAA Hellickson, Jeremy BAL 2 Oriole Park ... ND 422 110.8 23.3 73.4 71 0 1 0 421 30
08/18/17 Video View Trout, Mike LAA Hellickson, Jeremy BAL 5 Oriole Park ... PL 376 102.7 37.4 112.9 138 4 3 0 370 29
08/19/17 Video View Trout, Mike LAA Gausman, Kevin BAL 1 Oriole Park ... ND 438 108.8 30.7 109.5 113 7 4 0 427 30
08/19/17 Video View Valbuena, Luis LAA Gausman, Kevin BAL 2 Oriole Park ... JE/L 400 98.1 29.8 87.9 96 4 2 0 394 0
08/19/17 Video View Trout, Mike LAA Gausman, Kevin BAL 3 Oriole Park ... PL 428 104.7 30.1 97.8 114 0 3 0 425 30
08/19/17 Video View Valbuena, Luis LAA Gausman, Kevin BAL 4 Oriole Park ... JE 376 96.5 31.6 102.6 100 0 2 0 375 4
08/20/17 Video View Calhoun, Kole LAA Tillman, Chris BAL 2 Oriole Park ... ND 416 106.1 27.2 73.3 90 -2 1 0 416 30
08/20/17 Video View Simmons, Andrelton LAA Tillman, Chris BAL 6 Oriole Park ... PL 389 103.8 33.5 116.0 115 -6 4 0 391 30
08/21/17 Video View Lowrie, Jed OAK Miley, Wade BAL 6 Oriole Park ... JE 388 101.1 25.8 76.4 75 0 0 0 388 22
08/21/17 Video View Powell, Boog OAK Brach, Brad BAL 8 Oriole Park ... JE 352 95.5 35.6 67.3 110 0 2 0 351 14
08/22/17 Video View Lowrie, Jed OAK Jimenez, Ubaldo BAL 1 Oriole Park ... JE/L 397 100.2 35.3 78.6 128 9 5 0 384 17
08/22/17 Video View Healy, Ryon OAK Jimenez, Ubaldo BAL 1 Oriole Park ... JE 397 102.1 23.7 83.0 70 0 0 0 396 7
08/22/17 Video View Davis, Khris OAK O'Day, Darren BAL 9 Oriole Park ... PL/L 402 99.2 35.1 84.0 124 14 3 0 385 1
08/22/17 Video View Healy, Ryon OAK Jimenez, Ubaldo BAL 5 Oriole Park ... ND 434 109.8 33.8 115.4 126 15 5 0 415 30
08/23/17 Video View Joyce, Matt OAK Givens, Mychal BAL 8 Oriole Park ... PL 404 103.9 26.3 74.8 81 0 1 0 403 30
08/28/17 Video View Valencia, Danny SEA Tillman, Chris BAL 2 Oriole Park ... PL 422 102.4 32.2 92.5 122 8 1 0 413 25
08/28/17 Video View Gamel, Ben SEA Tillman, Chris BAL 4 Oriole Park ... PL 419 105.0 23.2 87.1 76 0 0 0 418 23
08/30/17 Video View Haniger, Mitch SEA Brach, Brad BAL 8 Oriole Park ... JE 398 101.2 24.1 85.5 74 0 1 0 397 2
08/31/17 Video View Morales, Kendrys TOR Hellickson, Jeremy BAL 3 Oriole Park ... PL 419 103.3 28.1 82.8 99 0 1 0 418 29
08/31/17 Video View Morales, Kendrys TOR Givens, Mychal BAL 6 Oriole Park ... ND 436 111.9 25.1 73.3 88 -4 1 0 439 30
08/31/17 Video View Morales, Kendrys TOR Givens, Mychal BAL 8 Oriole Park ... JE 402 100.9 30.4 87.5 115 -8 1 0 409 19
09/02/17 Video View Pillar, Kevin TOR Miley, Wade BAL 5 Oriole Park ... JE 371 101.8 24.5 109.8 65 -1 0 0 372 17
09/02/17 Video View Donaldson, Josh TOR Rodriguez, Richard BAL 7 Oriole Park ... ND 419 108.1 28.9 103.4 117 -16 0 0 435 30
09/02/17 Video View Barney, Darwin TOR Asher, Alec BAL 8 Oriole Park ... JE 365 98.2 26.4 106.8 74 -2 0 0 368 12
09/03/17 Video View Donaldson, Josh TOR Tillman, Chris BAL 3 Oriole Park ... PL 414 102.5 29.1 80.9 101 1 1 0 412 29
09/04/17 Video View Gregorius, Didi NYY Bundy, Dylan BAL 4 Oriole Park ... JE/L 366 106.1 22.3 63.2 53 -1 0 0 366 15
09/04/17 Video View Castro, Starlin NYY Bundy, Dylan BAL 5 Oriole Park ... JE 374 106.0 23.5 117.5 59 -1 1 0 374 28
09/07/17 Video View Judge, Aaron NYY Gausman, Kevin BAL 1 Oriole Park ... PL 426 104.2 34.4 84.1 136 14 0 0 411 28
09/07/17 Video View Headley, Chase NYY Wright, Mike BAL 4 Oriole Park ... PL 411 102.4 33.8 76.5 122 13 0 0 397 29
09/07/17 Video View Castro, Starlin NYY Hart, Donnie BAL 6 Oriole Park ... PL 412 106.9 22.4 99.3 67 1 1 0 411 23
09/07/17 Video View Frazier, Todd NYY Rodriguez, Richard BAL 7 Oriole Park ... PL 372 100.6 35.0 103.7 135 -13 1 0 384 25
09/18/17 Video View Bogaerts, Xander BOS Hart, Donnie BAL 7 Oriole Park ... PL 428 105.6 25.2 95.4 87 0 0 0 427 29
09/20/17 Video View Betts, Mookie BOS Miley, Wade BAL 4 Oriole Park ... JE 376 103.8 23.5 109.4 62 0 1 0 376 16
09/20/17 Video View Marrero, Deven BOS Miley, Wade BAL 4 Oriole Park ... PL 406 103.2 24.1 83.3 75 0 1 0 406 15
09/22/17 Video View Ramos, Wilson TB Jimenez, Ubaldo BAL 2 Oriole Park ... ND 441 109.6 25.9 101.7 94 0 1 0 441 30
09/22/17 Video View Longoria, Evan TB Jimenez, Ubaldo BAL 3 Oriole Park ... JE 364 95.9 32.4 108.3 99 -2 1 0 364 14
09/23/17 Video View Duda, Lucas TB Hellickson, Jeremy BAL 3 Oriole Park ... JE 369 107.0 23.0 58.0 55 0 1 0 369 26
09/23/17 Video View Morrison, Logan TB Wright, Mike BAL 9 Oriole Park ... PL 389 107.5 22.5 70.8 60 0 0 0 389 26
09/24/17 Video View Kiermaier, Kevin TB Tillman, Chris BAL 1 Oriole Park ... PL 427 105.4 27.0 79.3 92 2 2 0 423 29
09/24/17 Video View Sucre, Jesus TB Tillman, Chris BAL 2 Oriole Park ... ND 418 104.6 26.9 102.7 85 3 2 0 414 30
04/21/17 Video View Machado, Manny BAL Pomeranz, Drew BOS 5 Oriole Park ... PL 414 111.3 20.4 100.8 61 0 0 0 413 30
04/22/17 Video View Mancini, Trey BAL Wright, Steven BOS 4 Oriole Park ... PL 422 106.2 27.8 98.3 112 -8 -2 0 433 30
04/22/17 Video View Schoop, Jonathan BAL Wright, Steven BOS 4 Oriole Park ... PL 391 101.4 29.1 103.8 101 -6 -2 0 399 30
06/01/17 Video View Trumbo, Mark BAL Rodriguez, Eduardo BOS 1 Oriole Park ... PL 398 106.3 27.3 118.7 79 1 1 0 397 30
06/01/17 Video View Davis, Chris BAL Rodriguez, Eduardo BOS 4 Oriole Park ... PL 415 104.2 23.6 86.9 74 0 1 0 415 21
06/01/17 Video View Jones, Adam BAL Rodriguez, Eduardo BOS 6 Oriole Park ... JE 351 99.9 26.0 122.2 61 0 0 0 351 14
06/01/17 Video View Schoop, Jonathan BAL Rodriguez, Eduardo BOS 6 Oriole Park ... PL 400 103.4 33.1 103.9 127 -5 1 0 403 30
06/02/17 Video View Smith, Seth BAL Porcello, Rick BOS 1 Oriole Park ... PL 408 113.0 19.7 77.2 57 1 0 0 406 29
06/02/17 Video View Machado, Manny BAL Porcello, Rick BOS 1 Oriole Park ... ND 437 115.6 28.2 114.0 113 -21 2 0 454 30
06/03/17 Video View Machado, Manny BAL Price, David BOS 7 Oriole Park ... JE/L 366 96.8 37.3 108.1 124 11 1 0 354 2
09/18/17 Video View Alvarez, Pedro BAL Abad, Fernando BOS 5 Oriole Park ... PL 382 104.3 36.2 67.9 138 -3 2 0 383 30
07/14/17 Video View Castillo, Welington BAL Montgomery, Mike CHC 3 Oriole Park ... JE 415 103.6 24.5 94.1 80 0 0 0 414 20
07/14/17 Video View Trumbo, Mark BAL Uehara, Koji CHC 8 Oriole Park ... ND 407 105.9 28.3 112.8 89 0 1 0 406 30
07/15/17 Video View Joseph, Caleb BAL Arrieta, Jake CHC 5 Oriole Park ... PL 395 102.5 25.4 103.1 77 -1 1 0 395 27
05/05/17 Video View Davis, Chris BAL Gonzalez, Miguel CHW 3 Oriole Park ... ND 432 107.4 25.0 98.4 87 0 0 0 432 30
05/06/17 Video View Machado, Manny BAL Covey, Dylan CHW 2 Oriole Park ... JE 384 105.9 20.5 100.3 55 0 0 0 385 1
05/06/17 Video View Mancini, Trey BAL Covey, Dylan CHW 5 Oriole Park ... PL 392 104.5 34.8 111.4 131 4 -5 0 393 30
06/20/17 Video View Machado, Manny BAL Tomlin, Josh CLE 1 Oriole Park ... PL 390 99.0 35.3 110.6 114 18 3 0 369 19
06/20/17 Video View Schoop, Jonathan BAL Tomlin, Josh CLE 2 Oriole Park ... PL 410 109.9 22.2 105.6 63 1 1 0 408 30
06/20/17 Video View Machado, Manny BAL Tomlin, Josh CLE 5 Oriole Park ... ND 434 106.7 29.6 105.2 105 8 2 0 425 30
06/22/17 Video View Smith, Seth BAL Clevinger, Mike CLE 1 Oriole Park ... ND 434 107.1 25.4 98.4 87 1 2 0 432 30
08/03/17 Video View Beckham, Tim BAL Mujica, Edward DET 8 Oriole Park ... JE 336 92.7 35.3 61.8 97 0 1 0 335 7
08/04/17 Video View Beckham, Tim BAL Verlander, Justin DET 2 Oriole Park ... JE 401 101.1 26.2 80.6 78 3 1 0 397 15
08/04/17 Video View Machado, Manny BAL Verlander, Justin DET 3 Oriole Park ... PL 398 104.9 24.1 75.2 69 0 1 0 398 28
08/05/17 Video View Jones, Adam BAL Verhagen, Drew DET 5 Oriole Park ... PL 394 103.1 30.8 117.1 94 4 1 0 389 30
08/05/17 Video View Castillo, Welington BAL Jimenez, Joe DET 7 Oriole Park ... JE 402 103.0 25.7 76.8 75 2 0 0 399 27
08/05/17 Video View Beckham, Tim BAL Mujica, Edward DET 8 Oriole Park ... ND 422 104.5 30.6 101.3 116 2 1 0 419 30
08/06/17 Video View Davis, Chris BAL Sanchez, Anibal DET 1 Oriole Park ... PL 426 103.4 31.7 85.6 121 5 2 0 418 26
08/06/17 Video View Schoop, Jonathan BAL Sanchez, Anibal DET 1 Oriole Park ... PL 379 97.5 34.5 107.4 111 8 2 0 369 15
08/06/17 Video View Mancini, Trey BAL Sanchez, Anibal DET 1 Oriole Park ... PL 388 99.6 28.5 104.1 88 0 1 0 387 25
08/06/17 Video View Rickard, Joey BAL Sanchez, Anibal DET 4 Oriole Park ... JE 352 99.9 26.4 123.6 62 0 1 0 351 22
08/06/17 Video View Machado, Manny BAL Sanchez, Anibal DET 4 Oriole Park ... JE 418 101.9 27.3 88.7 93 3 1 0 414 21
07/21/17 Video View Schoop, Jonathan BAL Devenski, Chris HOU 9 Oriole Park ... PL 389 101.0 27.6 72.6 81 0 2 0 387 28
07/22/17 Video View Jones, Adam BAL McHugh, Collin HOU 5 Oriole Park ... PL 388 102.9 31.7 113.8 106 -6 1 0 393 30
07/22/17 Video View Schoop, Jonathan BAL McHugh, Collin HOU 5 Oriole Park ... PL 407 106.7 23.6 104.5 70 2 0 0 405 30
07/23/17 Video View Trumbo, Mark BAL Devenski, Chris HOU 7 Oriole Park ... PL 370 102.9 38.4 118.4 138 2 6 0 361 30
08/02/17 Video View Joseph, Caleb BAL Vargas, Jason KC 2 Oriole Park ... JE 381 107.3 21.3 107.2 54 0 0 0 380 12
08/18/17 Video View Trumbo, Mark BAL Heaney, Andrew LAA 2 Oriole Park ... PL 371 98.2 31.9 114.2 94 1 1 0 369 28
08/18/17 Video View Joseph, Caleb BAL Heaney, Andrew LAA 3 Oriole Park ... JE 365 103.7 24.3 118.7 59 -1 0 -1 365 22
08/18/17 Video View Machado, Manny BAL Middleton, Keynan LAA 9 Oriole Park ... PL 424 103.0 28.1 91.4 100 2 1 0 421 28
08/18/17 Video View Machado, Manny BAL Heaney, Andrew LAA 3 Oriole Park ... PL 418 103.1 28.1 82.8 99 0 1 0 417 28
08/18/17 Video View Machado, Manny BAL Heaney, Andrew LAA 5 Oriole Park ... PL 403 101.6 32.4 101.7 117 1 2 0 400 30
08/20/17 Video View Davis, Chris BAL Bridwell, Parker LAA 3 Oriole Park ... JE 362 97.0 31.3 114.4 89 -2 2 0 362 22
05/22/17 Video View Jones, Adam BAL Gibson, Kyle MIN 2 Oriole Park ... PL 380 101.5 34.5 112.8 119 0 -1 0 380 30
05/24/17 Video View Hardy, J.J. BAL Berrios, Jose MIN 3 Oriole Park ... PL 386 99.9 27.8 105.4 81 1 0 0 385 25
05/24/17 Video View Davis, Chris BAL Berrios, Jose MIN 7 Oriole Park ... JE 368 103.8 24.1 63.7 60 0 0 0 368 22
05/24/17 Video View Schoop, Jonathan BAL Berrios, Jose MIN 7 Oriole Park ... PL 359 97.0 35.8 117.1 109 6 -1 0 354 26
04/07/17 Video View Smith, Seth BAL Clippard, Tyler NYY 7 Oriole Park ... JE 350 96.3 31.5 72.2 101 -12 -4 0 367 22
04/07/17 Video View Machado, Manny BAL Severino, Luis NYY 5 Oriole Park ... PL 400 107.1 20.1 98.4 62 7 0 0 394 3
05/31/17 Video View Jones, Adam BAL Tanaka, Masahiro NYY 4 Oriole Park ... PL 405 101.1 27.0 83.4 89 0 -1 0 405 15
05/31/17 Video View Davis, Chris BAL Gallegos, Giovanny NYY 7 Oriole Park ... PL 384 99.0 30.6 75.6 100 -1 -2 0 386 27
09/04/17 Video View Beckham, Tim BAL Montgomery, Jordan NYY 1 Oriole Park ... PL 379 101.9 25.4 69.2 66 2 1 0 376 17
09/04/17 Video View Davis, Chris BAL Montgomery, Jordan NYY 2 Oriole Park ... JE/L 368 95.4 34.1 102.6 110 0 3 0 365 2
09/04/17 Video View Castillo, Welington BAL Betances, Dellin NYY 9 Oriole Park ... JE 405 107.7 19.9 85.3 57 -1 0 0 406 6
09/05/17 Video View Machado, Manny BAL Sabathia, CC NYY 3 Oriole Park ... JE 420 107.8 21.1 95.1 68 3 0 0 417 20
09/05/17 Video View Schoop, Jonathan BAL Sabathia, CC NYY 5 Oriole Park ... PL 423 104.6 30.1 98.5 115 0 0 0 423 30
09/05/17 Video View Trumbo, Mark BAL Sabathia, CC NYY 6 Oriole Park ... JE 362 97.2 32.6 115.6 95 0 0 0 362 26
09/05/17 Video View Machado, Manny BAL Betances, Dellin NYY 9 Oriole Park ... PL 433 105.9 27.1 95.8 100 0 0 0 433 30
08/21/17 Video View Jones, Adam BAL Smith, Chris OAK 4 Oriole Park ... PL 388 105.6 22.7 105.8 61 0 0 0 388 24
08/21/17 Video View Schoop, Jonathan BAL Smith, Chris OAK 5 Oriole Park ... JE 402 114.5 17.0 96.6 46 1 0 0 400 3
08/21/17 Video View Jones, Adam BAL Dull, Ryan OAK 5 Oriole Park ... JE 371 110.0 21.0 118.3 50 0 1 0 370 19
08/21/17 Video View Castillo, Welington BAL Brady, Michael OAK 8 Oriole Park ... PL 413 102.2 26.9 95.2 91 0 1 0 412 22
08/22/17 Video View Machado, Manny BAL Castro, Simon OAK 6 Oriole Park ... ND 451 109.4 24.0 86.7 85 1 1 0 449 30
08/23/17 Video View Mancini, Trey BAL Gossett, Daniel OAK 4 Oriole Park ... PL 412 101.7 28.1 90.0 103 -4 1 0 414 23
08/23/17 Video View Castillo, Welington BAL Coulombe, Daniel OAK 6 Oriole Park ... PL 419 107.4 22.9 99.1 72 0 0 0 418 29
08/23/17 Video View Davis, Chris BAL Dull, Ryan OAK 8 Oriole Park ... JE 397 103.3 23.7 80.3 73 -1 1 0 398 21
08/23/17 Video View Machado, Manny BAL Castro, Simon OAK 12 Oriole Park ... JE 374 97.1 32.1 101.7 108 -7 2 0 378 10
06/06/17 Video View Smith, Seth BAL Nova, Ivan PIT 1 Oriole Park ... PL 422 102.2 29.8 91.6 110 4 1 0 417 26
06/06/17 Video View Schoop, Jonathan BAL Nova, Ivan PIT 7 Oriole Park ... PL 371 99.2 32.6 121.0 93 3 1 0 366 30
06/06/17 Video View Davis, Chris BAL Nova, Ivan PIT 7 Oriole Park ... PL 376 100.0 28.9 64.1 77 4 0 0 372 27
06/06/17 Video View Schoop, Jonathan BAL Watson, Tony PIT 9 Oriole Park ... PL 415 105.3 22.2 86.7 78 2 0 0 414 19
06/07/17 Video View Jones, Adam BAL Barbato, Johnny PIT 8 Oriole Park ... JE 413 102.6 25.8 94.1 87 0 -1 0 413 20
06/07/17 Video View Mancini, Trey BAL Watson, Tony PIT 9 Oriole Park ... PL 389 100.0 30.2 75.8 100 -1 -1 0 391 28
06/07/17 Video View Mancini, Trey BAL LeBlanc, Wade PIT 11 Oriole Park ... ND 416 109.7 26.5 115.3 82 0 -1 0 417 30
08/28/17 Video View Jones, Adam BAL Bergman, Christian SEA 5 Oriole Park ... JE 414 103.8 23.3 86.6 73 3 0 0 411 15
08/29/17 Video View Schoop, Jonathan BAL Ramirez, Erasmo SEA 1 Oriole Park ... PL 401 105.0 25.9 105.2 86 -5 -1 0 407 30
08/29/17 Video View Machado, Manny BAL Ramirez, Erasmo SEA 6 Oriole Park ... JE/L 370 100.1 24.1 104.4 66 0 0 0 371 2
08/29/17 Video View Castillo, Welington BAL Pazos, James SEA 7 Oriole Park ... JE 383 107.1 20.6 103.6 54 0 0 0 382 3
08/29/17 Video View Machado, Manny BAL Lawrence, Casey SEA 8 Oriole Park ... PL 363 100.5 29.1 121.2 80 -4 -1 0 368 30
08/30/17 Video View Mancini, Trey BAL Miranda, Ariel SEA 2 Oriole Park ... PL 422 105.9 22.8 93.3 77 0 0 0 421 25
08/30/17 Video View Castillo, Welington BAL Miranda, Ariel SEA 4 Oriole Park ... JE 378 100.8 25.3 106.7 70 0 0 0 377 13
08/30/17 Video View Gentry, Craig BAL Miranda, Ariel SEA 4 Oriole Park ... PL 387 102.2 30.4 115.1 93 -2 1 0 388 30
08/30/17 Video View Schoop, Jonathan BAL Miranda, Ariel SEA 5 Oriole Park ... JE 380 106.7 21.4 107.0 56 0 0 0 379 11
06/16/17 Video View Mancini, Trey BAL Tuivailala, Sam STL 9 Oriole Park ... PL 431 105.2 25.7 91.5 92 0 1 0 430 27
06/17/17 Video View Jones, Adam BAL Wainwright, Adam STL 1 Oriole Park ... PL 402 100.8 29.3 95.3 109 -8 2 0 407 28
06/17/17 Video View Trumbo, Mark BAL Wainwright, Adam STL 1 Oriole Park ... JE 408 100.8 28.6 88.5 104 -3 1 0 409 17
06/17/17 Video View Machado, Manny BAL Wainwright, Adam STL 2 Oriole Park ... JE/L 410 114.0 16.6 92.5 47 -2 0 0 412 11
06/17/17 Video View Schoop, Jonathan BAL Lyons, Tyler STL 4 Oriole Park ... PL 419 102.0 27.3 92.6 90 4 1 0 414 20
06/17/17 Video View Schoop, Jonathan BAL Brebbia, John STL 7 Oriole Park ... PL 358 98.1 28.9 120.0 73 0 1 0 356 24
06/18/17 Video View Smith, Seth BAL Lynn, Lance STL 1 Oriole Park ... JE 417 111.9 18.0 88.1 53 -3 0 0 420 21
06/18/17 Video View Mancini, Trey BAL Lynn, Lance STL 2 Oriole Park ... JE 363 99.7 27.1 60.1 66 3 2 0 358 16
06/18/17 Video View Trumbo, Mark BAL Lynn, Lance STL 5 Oriole Park ... JE/L 364 100.3 39.0 110.0 143 4 7 0 352 3
06/18/17 Video View Castillo, Welington BAL Lynn, Lance STL 5 Oriole Park ... PL 437 105.5 26.5 91.5 95 2 2 0 434 30
04/24/17 Video View Kim, Hyun soo BAL Archer, Chris TB 6 Oriole Park ... PL 406 105.8 21.6 83.0 71 2 0 0 404 17
04/24/17 Video View Schoop, Jonathan BAL Archer, Chris TB 6 Oriole Park ... JE 370 98.4 27.7 73.7 83 -2 -1 0 375 13
04/24/17 Video View Jones, Adam BAL Archer, Chris TB 7 Oriole Park ... PL 374 100.6 33.0 114.5 107 -1 -3 0 379 30
06/30/17 Video View Rickard, Joey BAL Faria, Jacob TB 6 Oriole Park ... JE 378 101.2 25.3 108.1 67 1 1 0 376 14
06/30/17 Video View Trumbo, Mark BAL Colome, Alex TB 10 Oriole Park ... PL 414 102.0 28.8 80.1 95 4 2 0 408 28
07/01/17 Video View Schoop, Jonathan BAL Odorizzi, Jake TB 5 Oriole Park ... JE 417 105.9 21.7 89.5 68 0 0 0 417 21
07/02/17 Video View Machado, Manny BAL Cobb, Alex TB 3 Oriole Park ... PL 397 111.6 21.2 110.5 55 1 1 0 395 30
07/02/17 Video View Trumbo, Mark BAL Cobb, Alex TB 4 Oriole Park ... PL 385 106.9 23.9 116.7 61 1 1 0 383 30
09/21/17 Video View Machado, Manny BAL Andriese, Matt TB 1 Oriole Park ... ND 409 105.9 30.4 110.6 107 -5 3 0 412 30
09/22/17 Video View Davis, Chris BAL Cobb, Alex TB 4 Oriole Park ... ND 425 108.9 25.9 72.6 85 -1 1 0 425 30
09/24/17 Video View Hardy, J.J. BAL Archer, Chris TB 4 Oriole Park ... ND 407 106.9 28.8 113.4 96 -8 3 0 411 30
09/24/17 Video View Sisco, Chance BAL Faria, Jacob TB 6 Oriole Park ... PL 402 99.9 31.5 78.1 105 6 3 0 393 23
07/17/17 Video View Smith, Seth BAL Cashner, Andrew TEX 7 Oriole Park ... JE 408 100.8 26.6 88.3 88 0 1 0 406 6
07/18/17 Video View Davis, Chris BAL Ross, Tyson TEX 1 Oriole Park ... JE/L 396 98.5 32.4 95.1 113 1 4 0 391 1
07/18/17 Video View Mancini, Trey BAL Ross, Tyson TEX 1 Oriole Park ... PL 395 100.2 32.8 102.3 116 -1 4 0 392 26
07/18/17 Video View Davis, Chris BAL Bibens-Dirkx, Austin TEX 4 Oriole Park ... PL 421 103.7 31.3 83.3 121 -1 3 0 419 29
07/18/17 Video View Smith, Seth BAL Barnette, Tony TEX 8 Oriole Park ... ND 383 102.1 30.1 60.2 86 1 1 0 381 30
07/19/17 Video View Jones, Adam BAL Perez, Martin TEX 1 Oriole Park ... JE 348 94.8 31.3 60.8 80 0 2 0 346 13
07/20/17 Video View Schoop, Jonathan BAL Hamels, Cole TEX 4 Oriole Park ... PL 404 102.3 31.4 102.0 116 -7 4 0 405 30
07/20/17 Video View Jones, Adam BAL Hamels, Cole TEX 5 Oriole Park ... JE 392 101.3 25.8 77.5 77 -1 2 0 391 23
07/20/17 Video View Trumbo, Mark BAL Hamels, Cole TEX 5 Oriole Park ... PL 421 105.6 22.6 89.2 74 0 1 0 420 25
07/20/17 Video View Davis, Chris BAL Jeffress, Jeremy TEX 7 Oriole Park ... JE 364 96.1 33.7 109.3 105 -2 4 0 362 12
04/05/17 Video View Davis, Chris BAL Happ, J.A. TOR 4 Oriole Park ... PL 409 101.8 28.1 94.7 101 -3 -1 0 413 26
04/05/17 Video View Jones, Adam BAL Happ, J.A. TOR 3 Oriole Park ... JE/L 349 94.5 31.1 118.0 79 4 0 0 345 9
04/03/17 Video View Trumbo, Mark BAL Grilli, Jason TOR 11 Oriole Park ... PL 384 99.2 30.5 109.0 92 4 -1 0 380 27
05/19/17 Video View Castillo, Welington BAL Sanchez, Aaron TOR 6 Oriole Park ... JE 405 102.9 25.0 81.5 77 0 0 0 405 25
05/19/17 Video View Castillo, Welington BAL Grilli, Jason TOR 10 Oriole Park ... PL 399 104.5 27.3 110.7 83 0 0 0 399 30
05/20/17 Video View Machado, Manny BAL Bolsinger, Mike TOR 3 Oriole Park ... PL 401 102.7 30.9 107.5 105 2 -1 0 400 30
05/20/17 Video View Trumbo, Mark BAL Bolsinger, Mike TOR 5 Oriole Park ... PL 397 102.4 33.6 106.1 122 3 -1 0 395 30
05/20/17 Video View Castillo, Welington BAL Barnes, Danny TOR 7 Oriole Park ... PL 389 99.1 26.8 101.0 77 3 -1 0 386 16
05/21/17 Video View Jones, Adam BAL Estrada, Marco TOR 4 Oriole Park ... PL 389 101.0 29.7 109.4 92 0 -1 -1 389 30
08/31/17 Video View Jones, Adam BAL Estrada, Marco TOR 1 Oriole Park ... JE 353 96.1 30.8 119.9 80 0 1 0 351 17
08/31/17 Video View Davis, Chris BAL Estrada, Marco TOR 5 Oriole Park ... PL 409 103.6 28.8 81.9 112 -12 1 0 419 29
09/02/17 Video View Smith, Seth BAL Santos, Luis TOR 8 Oriole Park ... JE 397 107.1 20.3 81.7 58 1 0 0 396 7
09/03/17 Video View Castillo, Welington BAL Anderson, Brett TOR 3 Oriole Park ... PL 389 100.4 33.2 109.5 111 5 1 0 383 30
09/03/17 Video View Trumbo, Mark BAL Anderson, Brett TOR 4 Oriole Park ... PL 431 108.2 21.8 88.9 72 -1 0 0 431 28
09/03/17 Video View Castillo, Welington BAL Osuna, Roberto TOR 9 Oriole Park ... PL 395 105.4 34.6 112.4 132 -3 2 0 396 30
05/08/17 Video View Rickard, Joey BAL Gonzalez, Gio WSH 1 Oriole Park ... JE 363 104.4 24.2 121.8 58 0 -1 0 364 27
05/08/17 Video View Trumbo, Mark BAL Gonzalez, Gio WSH 1 Oriole Park ... PL 407 109.1 22.2 104.6 67 1 -1 0 407 30
05/08/17 Video View Mancini, Trey BAL Gonzalez, Gio WSH 1 Oriole Park ... ND 434 107.7 25.0 98.9 87 1 -1 0 433 30
05/09/17 Video View Smith, Seth BAL Scherzer, Max WSH 6 Oriole Park ... JE 374 102.5 24.0 70.9 64 1 0 0 373 10
05/09/17 Video View Jones, Adam BAL Scherzer, Max WSH 8 Oriole Park ... PL 383 106.4 23.9 115.2 62 0 -1 0 383 30


About HitTracker | Contact Us
© 2006-2017 HitTrackerOnline